sensor_id;sensor_type;location;lat;lon;timestamp;pressure;altitude;pressure_sealevel;temperature;humidity
71239;BME280;61342;51.442;7.370;2023-02-17T12:24:09;100230.63;;;13.85;97.90
71239;BME280;61342;51.442;7.370;2023-02-17T12:25:25;100235.63;;;13.84;97.85
71239;BME280;61342;51.442;7.370;2023-02-17T12:26:38;100205.16;;;13.83;97.54
71239;BME280;61342;51.442;7.370;2023-02-17T12:30:11;100221.34;;;14.05;96.45
71239;BME280;61342;51.442;7.370;2023-02-17T12:32:54;100219.91;;;14.24;95.52
71239;BME280;61342;51.442;7.370;2023-02-17T12:34:48;100189.91;;;14.14;94.74
71239;BME280;61342;51.442;7.370;2023-02-17T12:35:54;100206.44;;;14.27;94.20
71239;BME280;61342;51.442;7.370;2023-02-17T12:37:04;100217.25;;;14.39;93.83
71239;BME280;61342;51.442;7.370;2023-02-17T12:42:56;100197.09;;;14.46;91.69
71239;BME280;61342;51.442;7.370;2023-02-17T12:45:02;100198.06;;;14.62;91.64
71239;BME280;61342;51.442;7.370;2023-02-17T12:45:43;100207.94;;;14.66;91.43
71239;BME280;61342;51.442;7.370;2023-02-17T12:46:53;100181.41;;;14.55;90.72
71239;BME280;61342;51.442;7.370;2023-02-17T12:48:32;100232.09;;;14.69;90.63
71239;BME280;61342;51.442;7.370;2023-02-17T12:50:52;100167.00;;;14.62;90.13
71239;BME280;61342;51.442;7.370;2023-02-17T12:51:58;100208.81;;;14.74;89.86
71239;BME280;61342;51.442;7.370;2023-02-17T12:53:02;100190.69;;;14.74;89.76
71239;BME280;61342;51.442;7.370;2023-02-17T12:54:13;100196.72;;;14.76;89.50
71239;BME280;61342;51.442;7.370;2023-02-17T12:55:26;100219.88;;;14.76;89.29
71239;BME280;61342;51.442;7.370;2023-02-17T12:59:09;100171.03;;;14.59;88.96
71239;BME280;61342;51.442;7.370;2023-02-17T13:00:22;100188.94;;;14.71;89.23
71239;BME280;61342;51.442;7.370;2023-02-17T13:01:36;100192.72;;;14.66;89.23
71239;BME280;61342;51.442;7.370;2023-02-17T13:02:45;100182.28;;;14.63;89.00
71239;BME280;61342;51.442;7.370;2023-02-17T13:04:09;100200.63;;;14.65;88.89
71239;BME280;61342;51.442;7.370;2023-02-17T13:05:27;100189.50;;;14.69;88.59
71239;BME280;61342;51.442;7.370;2023-02-17T13:06:42;100213.72;;;14.79;88.58
71239;BME280;61342;51.442;7.370;2023-02-17T13:08:04;100220.06;;;14.78;88.65
71239;BME280;61342;51.442;7.370;2023-02-17T13:11:53;100201.28;;;14.71;88.66
71239;BME280;61342;51.442;7.370;2023-02-17T13:13:10;100203.59;;;14.73;88.85
71239;BME280;61342;51.442;7.370;2023-02-17T13:14:28;100228.19;;;14.79;88.41
71239;BME280;61342;51.442;7.370;2023-02-17T13:16:41;100223.97;;;14.80;88.38
71239;BME280;61342;51.442;7.370;2023-02-17T13:17:58;100231.09;;;14.79;88.41
71239;BME280;61342;51.442;7.370;2023-02-17T13:19:07;100226.28;;;14.82;88.34
71239;BME280;61342;51.442;7.370;2023-02-17T13:22:27;100218.59;;;14.84;88.47
71239;BME280;61342;51.442;7.370;2023-02-17T13:23:39;100202.56;;;14.83;88.21
71239;BME280;61342;51.442;7.370;2023-02-17T13:24:56;100213.59;;;14.85;88.36
71239;BME280;61342;51.442;7.370;2023-02-17T13:27:30;100219.19;;;14.83;88.60
71239;BME280;61342;51.442;7.370;2023-02-17T13:28:35;100237.19;;;14.89;88.56
71239;BME280;61342;51.442;7.370;2023-02-17T13:29:36;100222.72;;;14.89;88.57
71239;BME280;61342;51.442;7.370;2023-02-17T13:30:39;100227.16;;;14.90;88.13
71239;BME280;61342;51.442;7.370;2023-02-17T13:31:54;100232.75;;;14.88;88.25
71239;BME280;61342;51.442;7.370;2023-02-17T13:33:30;100236.97;;;14.87;88.25
71239;BME280;61342;51.442;7.370;2023-02-17T13:34:37;100225.84;;;14.91;88.67
71239;BME280;61342;51.442;7.370;2023-02-17T13:35:41;100234.50;;;14.91;88.55
71239;BME280;61342;51.442;7.370;2023-02-17T13:36:41;100226.84;;;14.93;87.88
71239;BME280;61342;51.442;7.370;2023-02-17T13:37:44;100234.72;;;14.93;88.42
71239;BME280;61342;51.442;7.370;2023-02-17T13:41:44;100223.69;;;14.91;88.20
71239;BME280;61342;51.442;7.370;2023-02-17T13:42:50;100232.06;;;14.95;88.47
71239;BME280;61342;51.442;7.370;2023-02-17T13:43:50;100222.38;;;14.92;88.46
71239;BME280;61342;51.442;7.370;2023-02-17T13:44:51;100234.38;;;14.96;88.60
71239;BME280;61342;51.442;7.370;2023-02-17T13:45:56;100242.50;;;14.98;88.41
71239;BME280;61342;51.442;7.370;2023-02-17T13:47:05;100238.03;;;14.97;88.25
71239;BME280;61342;51.442;7.370;2023-02-17T13:48:14;100244.06;;;14.98;88.33
71239;BME280;61342;51.442;7.370;2023-02-17T13:49:20;100254.88;;;14.98;88.48
71239;BME280;61342;51.442;7.370;2023-02-17T13:51:30;100259.88;;;14.98;87.89
71239;BME280;61342;51.442;7.370;2023-02-17T13:52:31;100258.75;;;15.00;87.99
71239;BME280;61342;51.442;7.370;2023-02-17T13:53:38;100246.19;;;14.98;87.92
71239;BME280;61342;51.442;7.370;2023-02-17T13:54:50;100250.41;;;14.97;87.87
71239;BME280;61342;51.442;7.370;2023-02-17T13:55:52;100232.50;;;14.98;87.79
71239;BME280;61342;51.442;7.370;2023-02-17T13:56:53;100235.59;;;15.00;87.90
71239;BME280;61342;51.442;7.370;2023-02-17T13:57:57;100238.47;;;15.00;87.59
71239;BME280;61342;51.442;7.370;2023-02-17T13:59:09;100236.72;;;14.98;87.62
71239;BME280;61342;51.442;7.370;2023-02-17T14:01:24;100236.16;;;14.99;87.85
71239;BME280;61342;51.442;7.370;2023-02-17T14:02:26;100247.16;;;15.00;87.81
71239;BME280;61342;51.442;7.370;2023-02-17T14:04:31;100239.84;;;14.99;87.97
71239;BME280;61342;51.442;7.370;2023-02-17T14:06:35;100240.84;;;15.02;87.81
71239;BME280;61342;51.442;7.370;2023-02-17T14:07:36;100254.31;;;14.99;87.70
71239;BME280;61342;51.442;7.370;2023-02-17T14:08:38;100261.31;;;15.04;87.84
71239;BME280;61342;51.442;7.370;2023-02-17T14:09:40;100282.38;;;15.04;87.37
71239;BME280;61342;51.442;7.370;2023-02-17T14:10:41;100274.22;;;15.03;87.22
71239;BME280;61342;51.442;7.370;2023-02-17T14:11:42;100282.91;;;15.03;87.61
71239;BME280;61342;51.442;7.370;2023-02-17T14:12:42;100269.78;;;15.02;87.59
71239;BME280;61342;51.442;7.370;2023-02-17T14:13:45;100275.78;;;15.04;87.77
71239;BME280;61342;51.442;7.370;2023-02-17T14:14:46;100274.22;;;15.03;87.39
71239;BME280;61342;51.442;7.370;2023-02-17T14:15:57;100290.06;;;15.02;87.48
71239;BME280;61342;51.442;7.370;2023-02-17T14:17:03;100280.00;;;15.03;87.40
71239;BME280;61342;51.442;7.370;2023-02-17T14:18:15;100284.81;;;15.00;87.22
71239;BME280;61342;51.442;7.370;2023-02-17T14:19:17;100285.28;;;15.04;87.46
71239;BME280;61342;51.442;7.370;2023-02-17T14:21:31;100282.38;;;15.04;87.33
71239;BME280;61342;51.442;7.370;2023-02-17T14:22:34;100306.88;;;15.03;87.31
71239;BME280;61342;51.442;7.370;2023-02-17T14:23:47;100298.19;;;15.03;87.66
71239;BME280;61342;51.442;7.370;2023-02-17T14:24:57;100295.06;;;15.01;87.48
71239;BME280;61342;51.442;7.370;2023-02-17T14:26:08;100300.06;;;15.01;87.82
71239;BME280;61342;51.442;7.370;2023-02-17T14:27:10;100307.63;;;15.04;87.90
71239;BME280;61342;51.442;7.370;2023-02-17T14:28:21;100308.19;;;15.02;88.44
71239;BME280;61342;51.442;7.370;2023-02-17T14:29:22;100304.53;;;15.02;88.32
71239;BME280;61342;51.442;7.370;2023-02-17T14:30:32;100303.75;;;15.01;88.18
71239;BME280;61342;51.442;7.370;2023-02-17T14:32:44;100307.19;;;15.00;88.40
71239;BME280;61342;51.442;7.370;2023-02-17T14:34:06;100312.44;;;15.01;88.26
71239;BME280;61342;51.442;7.370;2023-02-17T14:36:11;100316.66;;;15.00;88.31
71239;BME280;61342;51.442;7.370;2023-02-17T14:37:32;100300.41;;;14.98;88.12
71239;BME280;61342;51.442;7.370;2023-02-17T14:38:39;100312.22;;;14.99;87.65
71239;BME280;61342;51.442;7.370;2023-02-17T14:39:40;100299.63;;;14.97;87.87
71239;BME280;61342;51.442;7.370;2023-02-17T14:40:40;100298.31;;;14.98;87.97
71239;BME280;61342;51.442;7.370;2023-02-17T14:41:41;100301.41;;;15.00;87.39
71239;BME280;61342;51.442;7.370;2023-02-17T14:42:42;100297.75;;;14.99;87.59
71239;BME280;61342;51.442;7.370;2023-02-17T14:43:42;100318.00;;;14.99;87.30
71239;BME280;61342;51.442;7.370;2023-02-17T14:44:43;100313.31;;;14.97;87.32
71239;BME280;61342;51.442;7.370;2023-02-17T14:45:44;100308.09;;;14.95;86.95
71239;BME280;61342;51.442;7.370;2023-02-17T14:46:44;100316.44;;;14.98;86.82
71239;BME280;61342;51.442;7.370;2023-02-17T14:47:45;100323.56;;;14.98;87.04
71239;BME280;61342;51.442;7.370;2023-02-17T14:48:47;100325.91;;;14.99;87.00
71239;BME280;61342;51.442;7.370;2023-02-17T14:49:48;100317.78;;;14.98;87.01
71239;BME280;61342;51.442;7.370;2023-02-17T14:50:48;100327.78;;;14.97;86.76
71239;BME280;61342;51.442;7.370;2023-02-17T14:51:49;100322.00;;;14.97;87.36
71239;BME280;61342;51.442;7.370;2023-02-17T14:52:49;100336.28;;;14.95;87.36
71239;BME280;61342;51.442;7.370;2023-02-17T14:53:51;100337.59;;;14.94;87.12
71239;BME280;61342;51.442;7.370;2023-02-17T14:54:52;100336.59;;;14.91;87.19
71239;BME280;61342;51.442;7.370;2023-02-17T14:56:01;100336.94;;;14.88;87.58
71239;BME280;61342;51.442;7.370;2023-02-17T14:57:07;100341.75;;;14.85;87.75
71239;BME280;61342;51.442;7.370;2023-02-17T14:58:22;100333.38;;;14.82;87.77
71239;BME280;61342;51.442;7.370;2023-02-17T14:59:23;100333.94;;;14.80;88.34
71239;BME280;61342;51.442;7.370;2023-02-17T15:00:23;100326.38;;;14.77;88.56
71239;BME280;61342;51.442;7.370;2023-02-17T15:01:24;100331.38;;;14.77;88.68
71239;BME280;61342;51.442;7.370;2023-02-17T15:02:25;100339.03;;;14.74;89.18
71239;BME280;61342;51.442;7.370;2023-02-17T15:03:25;100348.28;;;14.73;89.25
71239;BME280;61342;51.442;7.370;2023-02-17T15:04:26;100345.97;;;14.71;89.33
71239;BME280;61342;51.442;7.370;2023-02-17T15:05:26;100333.72;;;14.65;90.00
71239;BME280;61342;51.442;7.370;2023-02-17T15:06:44;100343.50;;;14.62;89.91
71239;BME280;61342;51.442;7.370;2023-02-17T15:07:46;100334.63;;;14.60;90.51
71239;BME280;61342;51.442;7.370;2023-02-17T15:08:47;100335.38;;;14.61;90.91
71239;BME280;61342;51.442;7.370;2023-02-17T15:09:50;100339.97;;;14.56;91.09
71239;BME280;61342;51.442;7.370;2023-02-17T15:10:50;100344.94;;;14.56;91.33
71239;BME280;61342;51.442;7.370;2023-02-17T15:11:51;100351.06;;;14.52;91.79
71239;BME280;61342;51.442;7.370;2023-02-17T15:12:51;100354.53;;;14.51;92.45
71239;BME280;61342;51.442;7.370;2023-02-17T15:13:52;100347.50;;;14.46;92.25
71239;BME280;61342;51.442;7.370;2023-02-17T15:14:52;100352.50;;;14.46;92.58
71239;BME280;61342;51.442;7.370;2023-02-17T15:15:52;100349.19;;;14.42;92.63
71239;BME280;61342;51.442;7.370;2023-02-17T15:16:53;100356.28;;;14.41;92.86
71239;BME280;61342;51.442;7.370;2023-02-17T15:17:53;100352.38;;;14.39;93.17
71239;BME280;61342;51.442;7.370;2023-02-17T15:18:53;100347.72;;;14.36;93.69
71239;BME280;61342;51.442;7.370;2023-02-17T15:21:37;100348.69;;;14.25;93.63
71239;BME280;61342;51.442;7.370;2023-02-17T15:22:38;100341.59;;;14.26;94.17
71239;BME280;61342;51.442;7.370;2023-02-17T15:25:56;100331.38;;;14.07;94.54
71239;BME280;61342;51.442;7.370;2023-02-17T15:26:57;100330.09;;;14.08;94.64
71239;BME280;61342;51.442;7.370;2023-02-17T15:27:57;100347.34;;;14.13;94.74
71239;BME280;61342;51.442;7.370;2023-02-17T15:28:57;100353.44;;;14.10;95.26
71239;BME280;61342;51.442;7.370;2023-02-17T15:29:58;100348.22;;;14.08;95.17
71239;BME280;61342;51.442;7.370;2023-02-17T15:30:58;100353.75;;;14.06;95.48
71239;BME280;61342;51.442;7.370;2023-02-17T15:32:00;100344.06;;;14.04;95.39
71239;BME280;61342;51.442;7.370;2023-02-17T15:33:02;100364.84;;;14.02;95.80
71239;BME280;61342;51.442;7.370;2023-02-17T15:34:05;100348.59;;;13.99;95.55
71239;BME280;61342;51.442;7.370;2023-02-17T15:35:14;100356.28;;;13.97;95.87
71239;BME280;61342;51.442;7.370;2023-02-17T15:36:16;100357.59;;;13.96;95.90
71239;BME280;61342;51.442;7.370;2023-02-17T15:37:16;100362.38;;;13.93;96.07
71239;BME280;61342;51.442;7.370;2023-02-17T15:38:16;100357.91;;;13.92;96.33
71239;BME280;61342;51.442;7.370;2023-02-17T15:39:19;100366.59;;;13.92;96.51
71239;BME280;61342;51.442;7.370;2023-02-17T15:40:23;100364.56;;;13.87;96.61
71239;BME280;61342;51.442;7.370;2023-02-17T15:41:26;100374.59;;;13.86;96.75
71239;BME280;61342;51.442;7.370;2023-02-17T15:42:26;100378.00;;;13.85;96.87
71239;BME280;61342;51.442;7.370;2023-02-17T15:43:33;100380.97;;;13.80;96.98
71239;BME280;61342;51.442;7.370;2023-02-17T15:44:46;100395.97;;;13.78;96.66
71239;BME280;61342;51.442;7.370;2023-02-17T15:45:47;100410.41;;;13.78;96.73
71239;BME280;61342;51.442;7.370;2023-02-17T15:46:49;100407.31;;;13.76;97.05
71239;BME280;61342;51.442;7.370;2023-02-17T15:47:51;100416.50;;;13.75;97.21
71239;BME280;61342;51.442;7.370;2023-02-17T15:48:54;100419.94;;;13.73;97.22
71239;BME280;61342;51.442;7.370;2023-02-17T15:49:54;100413.16;;;13.71;97.31
71239;BME280;61342;51.442;7.370;2023-02-17T15:50:55;100403.72;;;13.70;97.41
71239;BME280;61342;51.442;7.370;2023-02-17T15:51:55;100416.59;;;13.69;97.21
71239;BME280;61342;51.442;7.370;2023-02-17T15:52:55;100414.25;;;13.68;97.43
71239;BME280;61342;51.442;7.370;2023-02-17T15:53:56;100413.50;;;13.67;97.29
71239;BME280;61342;51.442;7.370;2023-02-17T15:54:56;100398.78;;;13.65;97.28
71239;BME280;61342;51.442;7.370;2023-02-17T15:55:59;100408.00;;;13.64;97.37
71239;BME280;61342;51.442;7.370;2023-02-17T15:57:05;100406.44;;;13.63;97.28
71239;BME280;61342;51.442;7.370;2023-02-17T15:58:12;100409.13;;;13.61;97.05
71239;BME280;61342;51.442;7.370;2023-02-17T15:59:24;100409.13;;;13.61;97.45
71239;BME280;61342;51.442;7.370;2023-02-17T16:00:27;100414.34;;;13.62;97.42
71239;BME280;61342;51.442;7.370;2023-02-17T16:01:34;100416.75;;;13.58;97.10
71239;BME280;61342;51.442;7.370;2023-02-17T16:02:34;100424.09;;;13.59;97.23
71239;BME280;61342;51.442;7.370;2023-02-17T16:03:35;100414.44;;;13.57;97.15
71239;BME280;61342;51.442;7.370;2023-02-17T16:04:35;100421.22;;;13.59;97.32
71239;BME280;61342;51.442;7.370;2023-02-17T16:05:35;100417.53;;;13.59;97.33
71239;BME280;61342;51.442;7.370;2023-02-17T16:06:36;100416.75;;;13.58;97.49
71239;BME280;61342;51.442;7.370;2023-02-17T16:07:36;100417.88;;;13.55;97.29
71239;BME280;61342;51.442;7.370;2023-02-17T16:08:37;100408.66;;;13.57;97.19
71239;BME280;61342;51.442;7.370;2023-02-17T16:09:37;100410.78;;;13.56;97.05
71239;BME280;61342;51.442;7.370;2023-02-17T16:10:38;100404.19;;;13.56;97.15
71239;BME280;61342;51.442;7.370;2023-02-17T16:11:51;100407.38;;;13.52;96.98
71239;BME280;61342;51.442;7.370;2023-02-17T16:12:55;100414.72;;;13.53;96.86
71239;BME280;61342;51.442;7.370;2023-02-17T16:13:57;100425.25;;;13.51;97.32
71239;BME280;61342;51.442;7.370;2023-02-17T16:14:57;100421.06;;;13.52;97.23
71239;BME280;61342;51.442;7.370;2023-02-17T16:15:58;100420.84;;;13.50;97.11
71239;BME280;61342;51.442;7.370;2023-02-17T16:16:59;100420.84;;;13.50;97.10
71239;BME280;61342;51.442;7.370;2023-02-17T16:17:59;100423.47;;;13.48;97.19
71239;BME280;61342;51.442;7.370;2023-02-17T16:19:00;100417.16;;;13.49;97.47
71239;BME280;61342;51.442;7.370;2023-02-17T16:20:00;100440.03;;;13.47;97.57
71239;BME280;61342;51.442;7.370;2023-02-17T16:21:01;100422.25;;;13.43;97.29
71239;BME280;61342;51.442;7.370;2023-02-17T16:22:01;100417.47;;;13.46;97.59
71239;BME280;61342;51.442;7.370;2023-02-17T16:23:01;100432.44;;;13.44;97.06
71239;BME280;61342;51.442;7.370;2023-02-17T16:24:02;100438.22;;;13.44;97.25
71239;BME280;61342;51.442;7.370;2023-02-17T16:25:02;100430.91;;;13.43;97.11
71239;BME280;61342;51.442;7.370;2023-02-17T16:26:05;100435.31;;;13.44;97.35
71239;BME280;61342;51.442;7.370;2023-02-17T16:27:14;100438.28;;;13.39;97.40
71239;BME280;61342;51.442;7.370;2023-02-17T16:28:17;100440.13;;;13.42;97.09
71239;BME280;61342;51.442;7.370;2023-02-17T16:29:21;100438.84;;;13.37;97.39
71239;BME280;61342;51.442;7.370;2023-02-17T16:31:24;100445.09;;;13.41;97.00
71239;BME280;61342;51.442;7.370;2023-02-17T16:32:24;100440.63;;;13.40;96.81
71239;BME280;61342;51.442;7.370;2023-02-17T16:33:24;100438.28;;;13.39;97.14
71239;BME280;61342;51.442;7.370;2023-02-17T16:34:25;100450.09;;;13.41;97.34
71239;BME280;61342;51.442;7.370;2023-02-17T16:35:28;100451.66;;;13.42;97.07
71239;BME280;61342;51.442;7.370;2023-02-17T16:36:31;100440.88;;;13.42;97.29
71239;BME280;61342;51.442;7.370;2023-02-17T16:37:33;100446.41;;;13.40;97.04
71239;BME280;61342;51.442;7.370;2023-02-17T16:38:33;100447.44;;;13.43;96.87
71239;BME280;61342;51.442;7.370;2023-02-17T16:39:34;100445.88;;;13.42;96.85
71239;BME280;61342;51.442;7.370;2023-02-17T16:40:35;100444.53;;;13.43;96.53
71239;BME280;61342;51.442;7.370;2023-02-17T16:41:38;100444.00;;;13.44;96.84
71239;BME280;61342;51.442;7.370;2023-02-17T16:42:39;100438.00;;;13.42;96.40
71239;BME280;61342;51.442;7.370;2023-02-17T16:43:40;100444.53;;;13.43;96.83
71239;BME280;61342;51.442;7.370;2023-02-17T16:44:40;100444.00;;;13.44;96.56
71239;BME280;61342;51.442;7.370;2023-02-17T16:45:52;100448.78;;;13.42;96.56
71239;BME280;61342;51.442;7.370;2023-02-17T16:46:54;100449.00;;;13.44;96.25
71239;BME280;61342;51.442;7.370;2023-02-17T16:47:57;100458.44;;;13.44;96.26
71239;BME280;61342;51.442;7.370;2023-02-17T16:49:00;100446.09;;;13.44;96.28
71239;BME280;61342;51.442;7.370;2023-02-17T16:50:01;100463.44;;;13.44;95.91
71239;BME280;61342;51.442;7.370;2023-02-17T16:51:01;100459.22;;;13.45;95.97
71239;BME280;61342;51.442;7.370;2023-02-17T16:52:04;100453.75;;;13.41;95.98
71239;BME280;61342;51.442;7.370;2023-02-17T16:53:06;100463.44;;;13.44;96.09
71239;BME280;61342;51.442;7.370;2023-02-17T16:54:10;100457.91;;;13.46;95.82
71239;BME280;61342;51.442;7.370;2023-02-17T16:55:18;100471.34;;;13.43;95.19
71239;BME280;61342;51.442;7.370;2023-02-17T16:56:21;100472.88;;;13.44;95.42
71239;BME280;61342;51.442;7.370;2023-02-17T16:57:23;100461.31;;;13.44;95.47
71239;BME280;61342;51.442;7.370;2023-02-17T16:58:25;100465.56;;;13.43;95.43
71239;BME280;61342;51.442;7.370;2023-02-17T16:59:26;100463.44;;;13.44;94.97
71239;BME280;61342;51.442;7.370;2023-02-17T17:00:29;100470.53;;;13.43;94.86
71239;BME280;61342;51.442;7.370;2023-02-17T17:01:29;100484.97;;;13.43;95.17
71239;BME280;61342;51.442;7.370;2023-02-17T17:02:31;100482.56;;;13.47;95.00
71239;BME280;61342;51.442;7.370;2023-02-17T17:03:31;100472.34;;;13.46;94.96
71239;BME280;61342;51.442;7.370;2023-02-17T17:04:31;100483.09;;;13.45;94.83
71239;BME280;61342;51.442;7.370;2023-02-17T17:05:32;100492.56;;;13.46;94.95
71239;BME280;61342;51.442;7.370;2023-02-17T17:06:34;100487.00;;;13.48;94.67
71239;BME280;61342;51.442;7.370;2023-02-17T17:07:36;100487.00;;;13.48;94.27
71239;BME280;61342;51.442;7.370;2023-02-17T17:08:36;100488.34;;;13.47;94.03
71239;BME280;61342;51.442;7.370;2023-02-17T17:09:37;100487.56;;;13.46;94.07
71239;BME280;61342;51.442;7.370;2023-02-17T17:10:37;100488.09;;;13.45;94.02
71239;BME280;61342;51.442;7.370;2023-02-17T17:11:39;100500.91;;;13.49;94.00
71239;BME280;61342;51.442;7.370;2023-02-17T17:12:40;100499.34;;;13.48;93.64
71239;BME280;61342;51.442;7.370;2023-02-17T17:13:42;100496.69;;;13.50;93.77
71239;BME280;61342;51.442;7.370;2023-02-17T17:14:42;100487.00;;;13.48;93.88
71239;BME280;61342;51.442;7.370;2023-02-17T17:15:44;100509.03;;;13.51;93.50
71239;BME280;61342;51.442;7.370;2023-02-17T17:16:50;100497.47;;;13.51;93.41
71239;BME280;61342;51.442;7.370;2023-02-17T17:17:59;100498.81;;;13.50;93.13
71239;BME280;61342;51.442;7.370;2023-02-17T17:19:01;100495.59;;;13.53;93.14
71239;BME280;61342;51.442;7.370;2023-02-17T17:20:01;100492.25;;;13.49;93.17
71239;BME280;61342;51.442;7.370;2023-02-17T17:21:03;100497.47;;;13.51;93.40
71239;BME280;61342;51.442;7.370;2023-02-17T17:22:03;100501.72;;;13.50;92.88
71239;BME280;61342;51.442;7.370;2023-02-17T17:23:06;100499.81;;;13.52;92.55
71239;BME280;61342;51.442;7.370;2023-02-17T17:24:07;100513.47;;;13.52;92.82
71239;BME280;61342;51.442;7.370;2023-02-17T17:25:07;100500.59;;;13.53;92.59
71239;BME280;61342;51.442;7.370;2023-02-17T17:27:23;100499.28;;;13.54;92.38
71239;BME280;61342;51.442;7.370;2023-02-17T17:28:24;100516.06;;;13.55;92.46
71239;BME280;61342;51.442;7.370;2023-02-17T17:29:24;100513.72;;;13.54;92.38
71239;BME280;61342;51.442;7.370;2023-02-17T17:30:27;100519.72;;;13.56;92.32
71239;BME280;61342;51.442;7.370;2023-02-17T17:31:28;100515.53;;;13.57;92.33
71239;BME280;61342;51.442;7.370;2023-02-17T17:32:28;100512.63;;;13.57;92.38
71239;BME280;61342;51.442;7.370;2023-02-17T17:33:29;100524.19;;;13.57;92.09
71239;BME280;61342;51.442;7.370;2023-02-17T17:34:29;100515.28;;;13.55;92.20
71239;BME280;61342;51.442;7.370;2023-02-17T17:35:30;100516.28;;;13.57;91.91
71239;BME280;61342;51.442;7.370;2023-02-17T17:36:43;100518.41;;;13.57;91.92
71239;BME280;61342;51.442;7.370;2023-02-17T17:37:45;100516.84;;;13.56;91.99
71239;BME280;61342;51.442;7.370;2023-02-17T17:38:45;100515.81;;;13.53;91.71
71239;BME280;61342;51.442;7.370;2023-02-17T17:39:46;100522.41;;;13.54;91.99
71239;BME280;61342;51.442;7.370;2023-02-17T17:40:46;100517.38;;;13.54;92.01
71239;BME280;61342;51.442;7.370;2023-02-17T17:41:49;100514.81;;;13.51;91.62
71239;BME280;61342;51.442;7.370;2023-02-17T17:42:50;100525.81;;;13.52;91.57
71239;BME280;61342;51.442;7.370;2023-02-17T17:43:51;100528.69;;;13.52;91.70
71239;BME280;61342;51.442;7.370;2023-02-17T17:44:51;100529.72;;;13.55;92.02
71239;BME280;61342;51.442;7.370;2023-02-17T17:45:53;100535.50;;;13.55;91.53
71239;BME280;61342;51.442;7.370;2023-02-17T17:46:53;100529.50;;;13.53;92.10
71239;BME280;61342;51.442;7.370;2023-02-17T17:47:54;100514.81;;;13.51;92.05
71239;BME280;61342;51.442;7.370;2023-02-17T17:48:56;100535.28;;;13.53;91.41
71239;BME280;61342;51.442;7.370;2023-02-17T17:49:57;100530.59;;;13.50;91.55
71239;BME280;61342;51.442;7.370;2023-02-17T17:50:58;100529.00;;;13.49;91.81
71239;BME280;61342;51.442;7.370;2023-02-17T17:51:58;100532.69;;;13.49;91.58
71239;BME280;61342;51.442;7.370;2023-02-17T17:52:58;100531.66;;;13.47;91.27
71239;BME280;61342;51.442;7.370;2023-02-17T17:53:59;100540.56;;;13.49;91.66
71239;BME280;61342;51.442;7.370;2023-02-17T17:54:59;100534.53;;;13.47;91.53
71239;BME280;61342;51.442;7.370;2023-02-17T17:56:00;100539.28;;;13.44;91.71
71239;BME280;61342;51.442;7.370;2023-02-17T17:57:00;100542.97;;;13.45;91.80
71239;BME280;61342;51.442;7.370;2023-02-17T17:58:01;100531.19;;;13.43;91.55
71239;BME280;61342;51.442;7.370;2023-02-17T17:59:02;100545.06;;;13.44;91.21
71239;BME280;61342;51.442;7.370;2023-02-17T18:00:08;100533.50;;;13.44;91.45
71239;BME280;61342;51.442;7.370;2023-02-17T18:01:08;100542.44;;;13.46;91.90
71239;BME280;61342;51.442;7.370;2023-02-17T18:02:10;100541.66;;;13.46;91.85
71239;BME280;61342;51.442;7.370;2023-02-17T18:03:10;100541.66;;;13.46;91.85
71239;BME280;61342;51.442;7.370;2023-02-17T18:04:10;100540.09;;;13.45;91.98
71239;BME280;61342;51.442;7.370;2023-02-17T18:05:11;100540.88;;;13.45;91.85
71239;BME280;61342;51.442;7.370;2023-02-17T18:06:15;100540.31;;;13.47;91.75
71239;BME280;61342;51.442;7.370;2023-02-17T18:07:16;100544.00;;;13.47;91.94
71239;BME280;61342;51.442;7.370;2023-02-17T18:08:17;100545.53;;;13.48;91.82
71239;BME280;61342;51.442;7.370;2023-02-17T18:09:22;100562.88;;;13.48;91.80
71239;BME280;61342;51.442;7.370;2023-02-17T18:10:23;100557.91;;;13.49;91.96
71239;BME280;61342;51.442;7.370;2023-02-17T18:11:24;100559.22;;;13.48;91.97
71239;BME280;61342;51.442;7.370;2023-02-17T18:12:24;100560.78;;;13.49;91.97
71239;BME280;61342;51.442;7.370;2023-02-17T18:13:25;100559.22;;;13.48;91.92
71239;BME280;61342;51.442;7.370;2023-02-17T18:14:26;100561.34;;;13.47;91.88
71239;BME280;61342;51.442;7.370;2023-02-17T18:15:26;100564.75;;;13.46;91.85
71239;BME280;61342;51.442;7.370;2023-02-17T18:16:27;100570.22;;;13.49;91.70
71239;BME280;61342;51.442;7.370;2023-02-17T18:17:31;100565.53;;;13.46;91.83
71239;BME280;61342;51.442;7.370;2023-02-17T18:18:32;100567.88;;;13.48;91.61
71239;BME280;61342;51.442;7.370;2023-02-17T18:19:33;100576.31;;;13.46;91.56
71239;BME280;61342;51.442;7.370;2023-02-17T18:20:33;100561.34;;;13.47;91.88
71239;BME280;61342;51.442;7.370;2023-02-17T18:21:34;100565.53;;;13.46;91.56
71239;BME280;61342;51.442;7.370;2023-02-17T18:22:39;100565.84;;;13.43;91.60
71239;BME280;61342;51.442;7.370;2023-02-17T18:23:39;100566.63;;;13.43;91.73
71239;BME280;61342;51.442;7.370;2023-02-17T18:24:39;100563.19;;;13.45;91.78
71239;BME280;61342;51.442;7.370;2023-02-17T18:25:40;100566.84;;;13.45;91.78
71239;BME280;61342;51.442;7.370;2023-02-17T18:26:40;100561.16;;;13.40;91.74
71239;BME280;61342;51.442;7.370;2023-02-17T18:27:43;100556.94;;;13.41;91.45
71239;BME280;61342;51.442;7.370;2023-02-17T18:28:44;100570.84;;;13.42;92.00
71239;BME280;61342;51.442;7.370;2023-02-17T18:29:45;100562.72;;;13.41;91.71
71239;BME280;61342;51.442;7.370;2023-02-17T18:30:45;100562.72;;;13.41;91.33
71239;BME280;61342;51.442;7.370;2023-02-17T18:31:45;100567.94;;;13.42;91.82
71239;BME280;61342;51.442;7.370;2023-02-17T18:32:46;100580.81;;;13.41;91.76
71239;BME280;61342;51.442;7.370;2023-02-17T18:33:47;100566.16;;;13.39;91.88
71239;BME280;61342;51.442;7.370;2023-02-17T18:34:47;100572.47;;;13.38;91.60